createdAt,value
2023-01-04T00:01:23.911Z,7.78
2023-01-04T00:03:56.472Z,8.88
2023-01-04T00:06:29.620Z,6.75
2023-01-04T00:09:02.269Z,7.82
2023-01-04T00:11:35.186Z,7.15
2023-01-04T00:14:08.076Z,7.22
2023-01-04T00:16:41.056Z,6.80
2023-01-04T00:19:13.733Z,8.13
2023-01-04T00:21:46.689Z,7.22
2023-01-04T00:24:19.407Z,8.40
2023-01-04T00:26:52.414Z,8.63
2023-01-04T00:29:25.831Z,7.00
2023-01-04T00:31:58.743Z,8.10
2023-01-04T00:34:31.339Z,8.10
2023-01-04T00:37:04.253Z,7.90
2023-01-04T00:39:36.887Z,6.68
2023-01-04T00:42:09.784Z,6.78
2023-01-04T00:44:42.439Z,6.65
2023-01-04T00:47:15.424Z,5.65
2023-01-04T00:49:48.010Z,7.00
2023-01-04T00:52:20.923Z,7.85
2023-01-04T00:54:53.550Z,6.78
2023-01-04T00:57:26.405Z,7.45
2023-01-04T00:59:58.918Z,7.43
2023-01-04T01:02:31.936Z,6.82
2023-01-04T01:05:04.832Z,6.38
2023-01-04T01:07:37.775Z,6.65
2023-01-04T01:10:10.458Z,8.23
2023-01-04T01:12:43.607Z,7.03
2023-01-04T01:15:16.121Z,7.43
2023-01-04T01:17:49.086Z,8.38
2023-01-04T01:20:21.602Z,8.75
2023-01-04T01:22:54.475Z,12.02
2023-01-04T01:25:27.055Z,13.38
2023-01-04T01:27:59.872Z,11.48
2023-01-04T01:30:32.402Z,8.70
2023-01-04T01:33:05.216Z,10.20
2023-01-04T01:35:37.927Z,8.43
2023-01-04T01:38:10.908Z,8.05
2023-01-04T01:40:43.746Z,9.43
2023-01-04T01:43:20.156Z,7.82
2023-01-04T01:45:57.540Z,9.30
2023-01-04T01:48:30.539Z,7.43
2023-01-04T01:51:04.290Z,8.20
2023-01-04T01:53:40.941Z,6.07
2023-01-04T01:56:16.751Z,7.15
2023-01-04T01:58:52.970Z,7.78
2023-01-04T02:01:26.118Z,7.22
2023-01-04T02:03:59.175Z,8.07
2023-01-04T02:06:34.089Z,7.93
2023-01-04T02:09:09.996Z,7.78
2023-01-04T02:11:43.136Z,7.40
2023-01-04T02:14:28.712Z,8.00
2023-01-04T02:17:17.338Z,6.72
2023-01-04T02:19:50.363Z,5.30
2023-01-04T02:22:41.502Z,6.25
2023-01-04T02:25:17.772Z,5.55
2023-01-04T02:28:07.075Z,6.80
2023-01-04T02:30:46.082Z,6.20
2023-01-04T02:33:18.679Z,7.07
2023-01-04T02:35:59.799Z,6.43
2023-01-04T02:38:44.175Z,6.33
2023-01-04T02:41:36.943Z,7.78
2023-01-04T02:44:32.987Z,6.88
2023-01-04T02:47:10.459Z,5.50
2023-01-04T02:50:05.156Z,7.80
2023-01-04T02:52:38.409Z,5.57
2023-01-04T02:55:11.006Z,6.68
2023-01-04T02:57:55.891Z,6.95
2023-01-04T03:00:34.534Z,5.82
2023-01-04T03:03:26.168Z,6.38
2023-01-04T03:06:18.915Z,7.53
2023-01-04T03:08:57.866Z,5.07
2023-01-04T03:11:52.690Z,6.47
2023-01-04T03:14:31.962Z,6.15
2023-01-04T03:17:08.815Z,6.85
2023-01-04T03:19:51.854Z,6.82
2023-01-04T03:22:46.634Z,6.55
2023-01-04T03:25:41.840Z,6.75
2023-01-04T03:28:34.146Z,6.65
2023-01-04T03:31:35.520Z,6.50
2023-01-04T03:34:34.373Z,6.00
2023-01-04T03:37:27.534Z,5.85
2023-01-04T03:40:21.830Z,6.03
2023-01-04T03:43:31.980Z,5.75
2023-01-04T03:46:32.190Z,6.75
2023-01-04T03:49:11.054Z,4.72
2023-01-04T03:51:44.771Z,6.28
2023-01-04T03:54:17.585Z,6.88
2023-01-04T03:56:50.550Z,5.78
2023-01-04T03:59:23.941Z,5.57
2023-01-04T04:01:56.515Z,5.30
2023-01-04T04:04:48.025Z,5.25
2023-01-04T04:07:38.795Z,6.72
2023-01-04T04:10:11.812Z,5.53
2023-01-04T04:12:44.335Z,4.80
2023-01-04T04:15:17.183Z,4.68
2023-01-04T04:17:49.689Z,5.35
2023-01-04T04:20:22.618Z,4.97
2023-01-04T04:22:55.120Z,5.13
2023-01-04T04:25:28.079Z,4.22
2023-01-04T04:28:00.751Z,4.20
2023-01-04T04:30:34.064Z,5.95
2023-01-04T04:33:06.615Z,5.63
2023-01-04T04:35:39.529Z,6.78
2023-01-04T04:38:12.375Z,6.63
2023-01-04T04:41:04.378Z,6.53
2023-01-04T04:43:37.033Z,7.38
2023-01-04T04:46:10.457Z,7.80
2023-01-04T04:48:43.106Z,8.07
2023-01-04T04:51:16.286Z,9.32
2023-01-04T04:53:48.819Z,11.55
2023-01-04T04:56:21.748Z,11.82
2023-01-04T04:58:54.469Z,9.38
2023-01-04T05:01:27.480Z,10.95
2023-01-04T05:04:00.214Z,11.10
2023-01-04T05:06:33.173Z,12.88
2023-01-04T05:09:05.746Z,10.35
2023-01-04T05:11:57.175Z,11.73
2023-01-04T05:14:29.749Z,10.53
2023-01-04T05:17:02.747Z,12.32
2023-01-04T05:19:35.649Z,11.60
2023-01-04T05:22:08.574Z,10.77
2023-01-04T05:24:41.148Z,11.35
2023-01-04T05:27:14.011Z,12.15
2023-01-04T05:30:05.147Z,10.95
2023-01-04T05:32:38.042Z,11.63
2023-01-04T05:35:10.573Z,10.82
2023-01-04T05:37:43.465Z,10.80
2023-01-04T05:40:16.623Z,12.18
2023-01-04T05:42:49.457Z,12.15
2023-01-04T05:45:22.032Z,10.50
2023-01-04T05:47:55.413Z,10.95
2023-01-04T05:50:28.123Z,11.82
2023-01-04T05:53:01.171Z,11.25
2023-01-04T05:55:34.013Z,12.98
2023-01-04T05:58:06.929Z,11.10
2023-01-04T06:00:39.599Z,11.27
2023-01-04T06:03:12.584Z,11.43
2023-01-04T06:05:49.539Z,11.18
2023-01-04T06:08:22.377Z,10.90
2023-01-04T06:10:55.247Z,9.93
2023-01-04T06:13:28.207Z,26.33
2023-01-04T06:16:00.722Z,50.33
2023-01-04T06:18:33.701Z,46.95
2023-01-04T06:21:06.299Z,29.83
2023-01-04T06:23:39.184Z,21.25
2023-01-04T06:26:12.397Z,24.98
2023-01-04T06:28:45.428Z,20.63
2023-01-04T06:31:18.077Z,14.75
2023-01-04T06:33:51.464Z,13.27
2023-01-04T06:36:24.098Z,12.77
2023-01-04T06:39:00.569Z,12.50
2023-01-04T06:41:33.186Z,12.38
2023-01-04T06:44:06.316Z,15.02
2023-01-04T06:46:38.973Z,14.52
2023-01-04T06:49:11.975Z,14.45
2023-01-04T06:51:44.516Z,12.63
2023-01-04T06:54:17.400Z,15.48
2023-01-04T06:56:49.920Z,13.40
2023-01-04T06:59:22.904Z,15.15
2023-01-04T07:01:55.511Z,17.42
2023-01-04T07:04:28.532Z,16.02
2023-01-04T07:07:02.009Z,15.57
2023-01-04T07:09:36.344Z,14.63
2023-01-04T07:12:09.377Z,14.07
2023-01-04T07:14:42.482Z,12.75
2023-01-04T07:17:15.116Z,10.60
2023-01-04T07:19:48.031Z,12.35
2023-01-04T07:22:20.560Z,9.98
2023-01-04T07:24:53.426Z,9.23
2023-01-04T07:27:25.910Z,10.00
2023-01-04T07:29:58.841Z,11.75
2023-01-04T07:32:31.495Z,12.23
2023-01-04T07:35:04.549Z,11.18
2023-01-04T07:37:37.117Z,10.75
2023-01-04T07:40:10.553Z,11.57
2023-01-04T07:42:43.108Z,10.60
2023-01-04T07:45:16.062Z,11.23
2023-01-04T07:47:48.602Z,11.70
2023-01-04T07:50:21.524Z,12.02
2023-01-04T07:52:54.025Z,13.63
2023-01-04T07:55:26.891Z,10.65
2023-01-04T07:57:59.437Z,10.55
2023-01-04T08:00:32.311Z,11.32
2023-01-04T08:03:05.010Z,11.50
2023-01-04T08:05:38.038Z,10.48
2023-01-04T08:08:10.521Z,10.52
2023-01-04T08:10:43.509Z,11.13
2023-01-04T08:13:16.011Z,10.73
2023-01-04T08:15:55.953Z,9.02
2023-01-04T08:18:28.632Z,10.30
2023-01-04T08:21:05.191Z,11.65
2023-01-04T08:23:37.830Z,8.52
2023-01-04T08:26:12.162Z,10.13
2023-01-04T08:28:45.014Z,9.82
2023-01-04T08:31:20.166Z,7.95
2023-01-04T08:33:53.550Z,8.88
2023-01-04T08:36:28.106Z,8.48
2023-01-04T08:39:02.423Z,8.85
2023-01-04T08:42:04.210Z,10.18
2023-01-04T08:44:40.378Z,9.27
2023-01-04T08:47:13.610Z,9.15
2023-01-04T08:49:46.398Z,9.63
2023-01-04T08:52:19.370Z,8.07
2023-01-04T08:54:52.232Z,10.13
2023-01-04T08:57:25.070Z,10.10
2023-01-04T08:59:57.706Z,9.55
2023-01-04T09:02:30.800Z,8.20
2023-01-04T09:05:04.525Z,9.25
2023-01-04T09:07:37.738Z,8.48
2023-01-04T09:10:10.422Z,9.02
2023-01-04T09:12:43.424Z,10.68
2023-01-04T09:15:17.077Z,9.43
2023-01-04T09:18:20.573Z,8.98
2023-01-04T09:20:43.136Z,8.13
2023-01-04T09:23:16.061Z,5.97
2023-01-04T09:25:48.608Z,8.43
2023-01-04T09:28:21.668Z,7.43
2023-01-04T09:30:54.250Z,6.88
2023-01-04T09:33:47.811Z,7.13
2023-01-04T09:36:19.873Z,6.15
2023-01-04T09:38:52.796Z,7.82
2023-01-04T09:41:28.532Z,7.90
2023-01-04T09:44:02.816Z,9.48
2023-01-04T09:46:39.458Z,8.18
2023-01-04T09:49:12.447Z,7.72
2023-01-04T09:52:06.197Z,7.13
2023-01-04T09:54:51.389Z,7.13
2023-01-04T09:57:29.550Z,7.10
2023-01-04T10:00:06.108Z,7.18
2023-01-04T10:02:50.200Z,8.77
2023-01-04T10:05:26.366Z,10.95
2023-01-04T10:07:59.024Z,7.72
2023-01-04T10:10:31.933Z,8.10
2023-01-04T10:13:10.615Z,11.48
2023-01-04T10:16:02.397Z,12.15
2023-01-04T10:21:39.050Z,13.50
2023-01-04T10:24:25.790Z,9.95
2023-01-04T10:27:08.174Z,9.18
2023-01-04T10:29:43.787Z,7.85
2023-01-04T10:32:20.649Z,6.40
2023-01-04T10:34:53.674Z,8.07
2023-01-04T10:37:33.742Z,7.82
2023-01-04T10:40:12.947Z,6.78
2023-01-04T10:42:47.794Z,5.10
2023-01-04T10:45:22.823Z,6.70
2023-01-04T10:48:16.093Z,6.40
2023-01-04T10:50:48.719Z,5.97
2023-01-04T10:53:34.446Z,4.88
2023-01-04T10:56:27.644Z,5.70
2023-01-04T10:59:04.752Z,5.15
2023-01-04T11:01:37.529Z,5.97
2023-01-04T11:04:23.310Z,6.95
2023-01-04T11:07:11.200Z,4.53
2023-01-04T11:09:50.447Z,5.47
2023-01-04T11:12:24.007Z,5.55
2023-01-04T11:14:56.939Z,5.70
2023-01-04T11:17:32.134Z,5.90
2023-01-04T11:20:05.380Z,5.80
2023-01-04T11:22:41.114Z,7.03
2023-01-04T11:25:35.192Z,7.50
2023-01-04T11:28:30.713Z,6.93
2023-01-04T11:31:23.426Z,5.70
2023-01-04T11:34:00.522Z,5.72
2023-01-04T11:36:40.659Z,5.85
2023-01-04T11:39:26.785Z,5.75
2023-01-04T11:42:04.859Z,4.03
2023-01-04T11:44:37.832Z,4.07
2023-01-04T11:47:22.524Z,3.38
2023-01-04T11:49:56.481Z,2.10
2023-01-04T11:52:33.620Z,3.20
2023-01-04T11:55:25.393Z,4.03
2023-01-04T11:58:08.493Z,3.00
2023-01-04T12:00:57.749Z,3.78
2023-01-04T12:03:33.004Z,3.25
2023-01-04T12:06:28.793Z,3.72
2023-01-04T12:09:01.821Z,2.38
2023-01-04T12:11:36.073Z,3.03
2023-01-04T12:14:19.661Z,2.40
2023-01-04T12:17:01.457Z,3.05
2023-01-04T12:22:16.801Z,3.00
2023-01-04T12:24:52.832Z,2.90
2023-01-04T12:27:27.839Z,2.17
2023-01-04T12:30:02.523Z,2.55
2023-01-04T12:32:35.217Z,2.13
2023-01-04T12:35:28.022Z,3.10
2023-01-04T12:38:00.516Z,2.90
2023-01-04T12:40:45.738Z,2.20
2023-01-04T12:43:26.109Z,1.77
2023-01-04T12:46:37.637Z,2.05
2023-01-04T12:49:22.641Z,2.13
2023-01-04T12:55:05.148Z,1.70
2023-01-04T12:57:38.761Z,3.17
2023-01-04T13:00:15.493Z,2.38
2023-01-04T13:03:08.562Z,2.25
2023-01-04T13:05:57.889Z,3.13
2023-01-04T13:08:35.547Z,3.15
2023-01-04T13:11:22.670Z,2.55
2023-01-04T13:14:10.095Z,2.33
2023-01-04T13:17:03.550Z,2.92
2023-01-04T13:19:38.471Z,2.85
2023-01-04T13:22:16.538Z,2.65
2023-01-04T13:24:51.161Z,2.40
2023-01-04T13:27:24.603Z,3.75
2023-01-04T13:29:57.709Z,3.85
2023-01-04T13:32:35.589Z,2.22
2023-01-04T13:35:15.511Z,3.65
2023-01-04T13:37:49.126Z,2.90
2023-01-04T13:40:24.404Z,2.72
2023-01-04T13:43:09.679Z,2.85
2023-01-04T13:45:49.314Z,3.17
2023-01-04T13:48:23.294Z,4.30
2023-01-04T13:51:01.029Z,3.80
2023-01-04T13:53:33.709Z,4.20
2023-01-04T13:56:06.773Z,5.10
2023-01-04T13:58:39.334Z,6.38
2023-01-04T14:01:12.246Z,4.28
2023-01-04T14:03:50.986Z,6.20
2023-01-04T14:06:47.613Z,4.05
2023-01-04T14:09:25.120Z,3.88
2023-01-04T14:12:06.156Z,3.65
2023-01-04T14:14:39.680Z,4.18
2023-01-04T14:17:12.848Z,3.42
2023-01-04T14:19:55.634Z,3.28
2023-01-04T14:22:30.147Z,2.95
2023-01-04T14:25:23.054Z,2.42
2023-01-04T14:28:15.835Z,2.17
2023-01-04T14:31:08.373Z,3.38
2023-01-04T14:33:46.303Z,3.38
2023-01-04T14:36:20.717Z,3.45
2023-01-04T14:39:13.315Z,3.50
2023-01-04T14:41:48.841Z,3.63
2023-01-04T14:44:23.116Z,3.20
2023-01-04T14:46:56.828Z,2.92
2023-01-04T14:49:30.360Z,3.17
2023-01-04T14:52:04.078Z,3.25
2023-01-04T14:54:39.423Z,2.85
2023-01-04T14:57:12.110Z,3.30
2023-01-04T14:59:46.320Z,3.28
2023-01-04T15:02:19.681Z,3.72
2023-01-04T15:04:53.092Z,3.53
2023-01-04T15:07:32.767Z,3.30
2023-01-04T15:10:06.831Z,3.35
2023-01-04T15:12:39.465Z,3.55
2023-01-04T15:15:13.349Z,4.97
2023-01-04T15:17:46.029Z,6.00
2023-01-04T15:20:19.099Z,6.10
2023-01-04T15:22:51.611Z,4.43
2023-01-04T15:25:24.845Z,3.55
2023-01-04T15:27:57.553Z,4.53
2023-01-04T15:30:30.447Z,4.68
2023-01-04T15:33:02.963Z,3.97
2023-01-04T15:35:36.149Z,4.10
2023-01-04T15:38:14.412Z,3.85
2023-01-04T15:40:51.398Z,4.57
2023-01-04T15:43:25.036Z,4.18
2023-01-04T15:46:02.600Z,5.38
2023-01-04T15:48:36.026Z,4.80
2023-01-04T15:51:09.795Z,7.85
2023-01-04T15:53:42.271Z,5.85
2023-01-04T15:56:15.389Z,5.82
2023-01-04T15:58:48.345Z,4.13
2023-01-04T16:01:21.539Z,5.55
2023-01-04T16:03:54.496Z,4.80
2023-01-04T16:06:27.616Z,4.35
2023-01-04T16:09:02.136Z,3.80
2023-01-04T16:11:35.230Z,4.35
2023-01-04T16:14:07.776Z,5.82
2023-01-04T16:16:40.615Z,5.45
2023-01-04T16:19:13.262Z,4.15
2023-01-04T16:21:46.171Z,4.63
2023-01-04T16:24:45.328Z,4.55
2023-01-04T16:27:12.966Z,2.92
2023-01-04T16:29:45.615Z,4.10
2023-01-04T16:32:18.563Z,5.18
2023-01-04T16:34:51.428Z,5.60
2023-01-04T16:37:26.904Z,6.43
2023-01-04T16:40:08.120Z,7.25
2023-01-04T16:42:43.123Z,4.90
2023-01-04T16:45:15.827Z,5.00
2023-01-04T16:47:50.679Z,4.07
2023-01-04T16:50:23.892Z,4.78
2023-01-04T16:52:56.783Z,3.38
2023-01-04T16:55:29.333Z,4.20
2023-01-04T16:58:03.155Z,4.47
2023-01-04T17:00:36.249Z,3.97
2023-01-04T17:03:09.171Z,4.22
2023-01-04T17:05:41.664Z,5.35
2023-01-04T17:08:14.627Z,4.97
2023-01-04T17:10:47.506Z,5.03
2023-01-04T17:13:20.355Z,4.55
2023-01-04T17:15:52.895Z,4.65
2023-01-04T17:18:26.040Z,4.07
2023-01-04T17:21:31.499Z,3.70
2023-01-04T17:23:54.266Z,4.65
2023-01-04T17:26:28.277Z,3.55
2023-01-04T17:29:01.674Z,4.80
2023-01-04T17:31:35.546Z,4.57
2023-01-04T17:34:10.974Z,4.90
2023-01-04T17:36:43.820Z,5.07
2023-01-04T17:39:17.332Z,11.43
2023-01-04T17:41:49.956Z,17.08
2023-01-04T17:44:22.869Z,8.95
2023-01-04T17:46:55.365Z,7.28
2023-01-04T17:49:32.036Z,6.22
2023-01-04T17:52:07.106Z,9.55
2023-01-04T17:54:52.457Z,4.15
2023-01-04T17:57:25.466Z,11.75
2023-01-04T17:59:58.233Z,6.03
2023-01-04T18:02:32.409Z,8.30
2023-01-04T18:05:06.277Z,8.80
2023-01-04T18:07:39.252Z,8.15
2023-01-04T18:10:33.144Z,8.50
2023-01-04T18:13:07.028Z,11.02
2023-01-04T18:15:55.101Z,22.98
2023-01-04T18:18:33.232Z,19.83
2023-01-04T18:21:31.251Z,8.75
2023-01-04T18:29:50.069Z,7.47
2023-01-04T18:32:23.923Z,6.07
2023-01-04T18:34:56.876Z,6.97
2023-01-04T18:37:29.412Z,6.15
2023-01-04T18:40:03.740Z,7.35
2023-01-04T18:42:37.452Z,6.88
2023-01-04T18:45:10.531Z,3.58
2023-01-04T18:47:43.206Z,4.22
2023-01-04T18:50:16.520Z,3.65
2023-01-04T18:52:49.038Z,5.03
2023-01-04T18:55:21.910Z,4.35
2023-01-04T18:57:54.418Z,4.25
2023-01-04T19:00:30.177Z,3.67
2023-01-04T19:03:02.744Z,3.53
2023-01-04T19:05:35.728Z,3.88
2023-01-04T19:08:08.555Z,4.45
2023-01-04T19:10:42.008Z,5.45
2023-01-04T19:13:15.347Z,3.72
2023-01-04T19:15:48.395Z,3.33
2023-01-04T19:18:23.322Z,3.17
2023-01-04T19:21:00.336Z,3.55
2023-01-04T19:23:33.382Z,2.75
2023-01-04T19:26:07.472Z,3.53
2023-01-04T19:28:39.992Z,2.42
2023-01-04T19:31:13.694Z,2.65
2023-01-04T19:33:46.798Z,2.83
2023-01-04T19:36:20.093Z,3.65
2023-01-04T19:38:54.142Z,2.65
2023-01-04T19:41:33.778Z,2.55
2023-01-04T19:44:07.726Z,2.35
2023-01-04T19:46:40.698Z,3.38
2023-01-04T19:49:15.432Z,3.20
2023-01-04T19:51:49.551Z,2.70
2023-01-04T19:54:25.547Z,3.00
2023-01-04T19:56:58.846Z,2.55
2023-01-04T19:59:31.403Z,2.58
2023-01-04T20:02:04.443Z,2.78
2023-01-04T20:04:37.157Z,3.85
2023-01-04T20:07:10.119Z,3.25
2023-01-04T20:09:42.836Z,2.83
2023-01-04T20:12:15.700Z,2.60
2023-01-04T20:14:48.328Z,2.47
2023-01-04T20:17:21.153Z,2.65
2023-01-04T20:19:53.722Z,2.55
2023-01-04T20:22:26.693Z,2.35
2023-01-04T20:24:59.847Z,3.28
2023-01-04T20:27:32.803Z,2.75
2023-01-04T20:30:05.661Z,2.92
2023-01-04T20:32:38.689Z,2.42
2023-01-04T20:35:11.456Z,2.60
2023-01-04T20:37:44.435Z,1.95
2023-01-04T20:40:17.072Z,2.17
2023-01-04T20:43:08.284Z,1.90
2023-01-04T20:45:41.623Z,1.30
2023-01-04T20:48:15.083Z,2.10
2023-01-04T20:50:47.960Z,1.83
2023-01-04T20:53:20.903Z,1.63
2023-01-04T20:55:53.678Z,1.80
2023-01-04T20:58:26.629Z,1.63
2023-01-04T21:01:01.898Z,1.92
2023-01-04T21:06:25.548Z,1.73
2023-01-04T21:08:58.513Z,1.40
2023-01-04T21:11:31.080Z,1.88
2023-01-04T21:14:04.321Z,1.42
2023-01-04T21:16:36.914Z,1.38
2023-01-04T21:19:09.889Z,2.17
2023-01-04T21:21:42.483Z,1.85
2023-01-04T21:24:15.401Z,1.20
2023-01-04T21:26:47.976Z,1.40
2023-01-04T21:29:21.264Z,1.88
2023-01-04T21:31:54.334Z,2.30
2023-01-04T21:34:28.352Z,1.88
2023-01-04T21:37:00.857Z,1.80
2023-01-04T21:39:33.790Z,0.60
2023-01-04T21:42:06.356Z,0.90
2023-01-04T21:44:39.207Z,1.00
2023-01-04T21:47:11.762Z,1.27
2023-01-04T21:49:44.738Z,1.10
2023-01-04T21:52:17.267Z,0.98
2023-01-04T21:54:50.184Z,1.15
2023-01-04T21:57:22.685Z,0.70
2023-01-04T21:59:55.622Z,0.85
2023-01-04T22:02:28.313Z,0.82
2023-01-04T22:05:01.390Z,1.40
2023-01-04T22:07:33.928Z,0.85
2023-01-04T22:10:07.142Z,1.65
2023-01-04T22:12:39.731Z,0.65
2023-01-04T22:15:12.592Z,0.65
2023-01-04T22:17:45.276Z,1.05
2023-01-04T22:20:18.347Z,0.57
2023-01-04T22:22:50.878Z,0.50
2023-01-04T22:25:23.991Z,0.80
2023-01-04T22:27:56.598Z,0.77
2023-01-04T22:30:29.622Z,1.02
2023-01-04T22:33:02.177Z,0.90
2023-01-04T22:35:37.840Z,1.88
2023-01-04T22:38:10.348Z,1.58
2023-01-04T22:40:43.282Z,1.15
2023-01-04T22:43:15.806Z,0.80
2023-01-04T22:45:48.775Z,1.05
2023-01-04T22:48:21.333Z,1.40
2023-01-04T22:50:54.318Z,0.82
2023-01-04T22:53:26.892Z,1.13
2023-01-04T22:56:18.313Z,0.50
2023-01-04T22:58:54.976Z,0.60
2023-01-04T23:01:29.643Z,0.63
2023-01-04T23:04:03.215Z,0.60
2023-01-04T23:06:36.761Z,0.73
2023-01-04T23:09:11.010Z,0.95
2023-01-04T23:11:44.191Z,0.90
2023-01-04T23:14:17.415Z,0.70
2023-01-04T23:16:50.400Z,0.52
2023-01-04T23:19:23.091Z,0.60
2023-01-04T23:21:55.925Z,0.73
2023-01-04T23:24:28.479Z,0.85
2023-01-04T23:27:01.669Z,0.65
2023-01-04T23:29:34.482Z,0.85
2023-01-04T23:32:07.459Z,1.23
2023-01-04T23:34:40.156Z,0.70
2023-01-04T23:37:13.091Z,1.10
2023-01-04T23:39:45.705Z,0.93
2023-01-04T23:42:19.072Z,0.93
2023-01-04T23:44:51.801Z,1.00
2023-01-04T23:47:24.769Z,0.80
2023-01-04T23:49:57.448Z,0.90
2023-01-04T23:52:30.331Z,0.90
2023-01-04T23:55:02.879Z,0.80
2023-01-04T23:57:35.883Z,1.20
